Disclaimer

Please do not use the information listed here in-flight or in-navigation, as they are not provided to us by the airports but are provided by volunteers, so they might be outdated.

Search


Regions


Airport information page

Radio informations:
AGEN TWR - 121.3 MHz
Automatic Terminal Information Service (ATIS) - 129.6 MHz

Airport informations:
Latitude: 44° 10' 29.00" N
Longitude: 000° 35' 26.00" E
Elevation: 204 feet - 62 meters
Operating hours: Remarks
Operating agency: Civil government, landing fees and diplomatic clearance may be required
Timezone: UTC+1(+2DT) - Last Sunday in March to last Sunday in October
Fuel: Jet A1, without icing nhibitor.

100/130 MIL Spec, low lead, aviation gasoline (BLUE)

Runway information:
11/29 - 7103 x 98 feet< - >2165 x 30 meters

Recent METARs:
LFBA 151630Z AUTO 11011KT 8000 SCT006 SCT028 BKN110 06/05 Q1018 TEMPO 2000 RA BR BKN005
LFBA 151700Z AUTO 11010KT 7000 BKN006 BKN043 BKN100 06/05 Q1017 TEMPO 2000 RA BR
LFBA 151730Z AUTO 12009KT 9999 BKN006 BKN074 BKN088 06/05 Q1017 TEMPO 2000 RA BR

Airport on the map: